createdAt,value
2022-11-19T00:00:12.639Z,97202.69
2022-11-19T00:02:39.688Z,97208.84
2022-11-19T00:05:06.904Z,97203.75
2022-11-19T00:07:34.077Z,97195.53
2022-11-19T00:10:01.169Z,97199.22
2022-11-19T00:12:47.085Z,97194.72
2022-11-19T00:15:14.610Z,97194.50
2022-11-19T00:17:41.668Z,97193.88
2022-11-19T00:20:08.986Z,97194.94
2022-11-19T00:22:36.052Z,97192.28
2022-11-19T00:25:03.664Z,97198.63
2022-11-19T00:27:30.869Z,97197.16
2022-11-19T00:29:57.937Z,97196.53
2022-11-19T00:32:25.013Z,97200.44
2022-11-19T00:34:52.139Z,97196.72
2022-11-19T00:37:19.373Z,97203.09
2022-11-19T00:39:46.463Z,97199.78
2022-11-19T00:42:13.553Z,97193.22
2022-11-19T00:44:40.701Z,97203.06
2022-11-19T00:47:07.813Z,97202.44
2022-11-19T00:49:34.878Z,97204.47
2022-11-19T00:52:02.093Z,97203.03
2022-11-19T00:54:29.132Z,97208.56
2022-11-19T00:56:56.159Z,97212.63
2022-11-19T00:59:23.334Z,97208.75
2022-11-19T01:01:50.698Z,97207.28
2022-11-19T01:04:17.800Z,97212.59
2022-11-19T01:06:45.133Z,97218.38
2022-11-19T01:09:12.130Z,97212.66
2022-11-19T01:11:39.173Z,97213.06
2022-11-19T01:14:07.296Z,97215.06
2022-11-19T01:16:36.708Z,97216.88
2022-11-19T01:19:04.589Z,97211.91
2022-11-19T01:21:32.709Z,97220.25
2022-11-19T01:24:00.301Z,97220.22
2022-11-19T01:26:27.729Z,97220.44
2022-11-19T01:28:55.275Z,97233.94
2022-11-19T01:31:23.691Z,97237.78
2022-11-19T01:33:50.778Z,97233.69
2022-11-19T01:36:19.331Z,97233.69
2022-11-19T01:38:50.799Z,97229.19
2022-11-19T01:41:19.667Z,97234.13
2022-11-19T01:43:51.346Z,97243.13
2022-11-19T01:46:19.511Z,97237.09
2022-11-19T01:48:49.370Z,97243.38
2022-11-19T01:51:22.922Z,97248.13
2022-11-19T01:53:51.602Z,97248.69
2022-11-19T01:56:20.531Z,97248.22
2022-11-19T01:58:49.849Z,97253.50
2022-11-19T02:01:18.922Z,97249.19
2022-11-19T02:03:46.603Z,97258.81
2022-11-19T02:06:13.605Z,97253.88
2022-11-19T02:08:43.520Z,97254.50
2022-11-19T02:11:17.816Z,97258.91
2022-11-19T02:13:55.858Z,97269.84
2022-11-19T02:16:38.554Z,97262.63
2022-11-19T02:19:17.630Z,97254.69
2022-11-19T02:21:54.093Z,97254.44
2022-11-19T02:24:37.283Z,97246.75
2022-11-19T02:27:23.092Z,97244.00
2022-11-19T02:30:10.440Z,97248.25
2022-11-19T02:32:46.378Z,97265.72
2022-11-19T02:35:16.529Z,97262.25
2022-11-19T02:37:47.628Z,97254.28
2022-11-19T02:40:26.417Z,97260.22
2022-11-19T02:42:59.425Z,97271.09
2022-11-19T02:45:35.605Z,97269.44
2022-11-19T02:48:11.944Z,97262.38
2022-11-19T02:50:48.211Z,97268.91
2022-11-19T02:53:15.301Z,97270.97
2022-11-19T02:56:08.261Z,97275.75
2022-11-19T02:58:56.237Z,97272.91
2022-11-19T03:01:43.041Z,97282.19
2022-11-19T03:04:29.567Z,97281.81
2022-11-19T03:07:09.485Z,97276.63
2022-11-19T03:09:39.494Z,97279.53
2022-11-19T03:12:13.999Z,97270.38
2022-11-19T03:15:02.837Z,97265.66
2022-11-19T03:17:38.561Z,97251.84
2022-11-19T03:20:11.652Z,97258.81
2022-11-19T03:22:58.118Z,97262.47
2022-11-19T03:25:35.356Z,97269.16
2022-11-19T03:28:05.272Z,97260.56
2022-11-19T03:30:32.502Z,97270.41
2022-11-19T03:33:02.695Z,97268.88
2022-11-19T03:35:32.809Z,97271.06
2022-11-19T03:38:03.032Z,97269.97
2022-11-19T03:40:31.817Z,97273.25
2022-11-19T03:43:00.858Z,97275.19
2022-11-19T03:45:30.056Z,97282.16
2022-11-19T03:47:57.462Z,97279.38
2022-11-19T03:50:37.823Z,97275.34
2022-11-19T03:53:05.199Z,97293.09
2022-11-19T03:55:37.911Z,97289.22
2022-11-19T03:58:06.043Z,97297.81
2022-11-19T04:00:33.461Z,97294.47
2022-11-19T04:03:00.585Z,97301.75
2022-11-19T04:05:27.606Z,97292.31
2022-11-19T04:07:54.643Z,97289.81
2022-11-19T04:10:21.784Z,97300.00
2022-11-19T04:12:48.864Z,97302.91
2022-11-19T04:15:15.937Z,97303.19
2022-11-19T04:17:43.069Z,97300.97
2022-11-19T04:20:10.267Z,97302.78
2022-11-19T04:22:37.348Z,97304.06
2022-11-19T04:25:04.641Z,97309.63
2022-11-19T04:27:31.860Z,97306.72
2022-11-19T04:29:59.113Z,97314.75
2022-11-19T04:32:26.206Z,97321.34
2022-11-19T04:34:53.337Z,97316.81
2022-11-19T04:37:20.447Z,97319.59
2022-11-19T04:39:47.497Z,97310.69
2022-11-19T04:42:14.633Z,97318.66
2022-11-19T04:44:41.766Z,97318.81
2022-11-19T04:47:08.769Z,97312.94
2022-11-19T04:49:35.818Z,97320.47
2022-11-19T04:52:02.889Z,97312.47
2022-11-19T04:54:29.957Z,97310.00
2022-11-19T04:56:56.970Z,97314.34
2022-11-19T04:59:24.007Z,97318.88
2022-11-19T05:01:51.564Z,97328.59
2022-11-19T05:04:19.667Z,97326.38
2022-11-19T05:06:46.686Z,97313.41
2022-11-19T05:09:13.772Z,97318.13
2022-11-19T05:11:40.897Z,97310.06
2022-11-19T05:14:07.986Z,97313.41
2022-11-19T05:16:35.016Z,97319.56
2022-11-19T05:19:02.067Z,97321.47
2022-11-19T05:21:29.175Z,97330.81
2022-11-19T05:23:56.255Z,97322.88
2022-11-19T05:26:23.336Z,97330.47
2022-11-19T05:28:50.345Z,97325.41
2022-11-19T05:31:17.407Z,97319.31
2022-11-19T05:33:44.446Z,97329.03
2022-11-19T05:36:11.548Z,97329.53
2022-11-19T05:38:38.646Z,97324.91
2022-11-19T05:41:05.816Z,97322.34
2022-11-19T05:43:32.906Z,97332.13
2022-11-19T05:46:00.803Z,97331.41
2022-11-19T05:48:28.381Z,97327.41
2022-11-19T05:50:55.712Z,97327.28
2022-11-19T05:53:22.759Z,97332.69
2022-11-19T05:55:49.796Z,97328.94
2022-11-19T05:58:19.507Z,97332.75
2022-11-19T06:00:48.470Z,97334.44
2022-11-19T06:03:15.662Z,97333.59
2022-11-19T06:05:42.755Z,97342.84
2022-11-19T06:08:09.850Z,97334.88
2022-11-19T06:10:36.887Z,97335.84
2022-11-19T06:13:03.931Z,97332.59
2022-11-19T06:15:30.954Z,97335.28
2022-11-19T06:17:58.179Z,97342.63
2022-11-19T06:20:25.250Z,97338.91
2022-11-19T06:22:52.378Z,97337.59
2022-11-19T06:25:19.456Z,97342.81
2022-11-19T06:27:46.620Z,97341.28
2022-11-19T06:30:14.247Z,97344.47
2022-11-19T06:32:41.395Z,97344.13
2022-11-19T06:35:08.720Z,97345.78
2022-11-19T06:37:36.053Z,97356.06
2022-11-19T06:40:03.404Z,97352.09
2022-11-19T06:42:36.453Z,97357.09
2022-11-19T06:45:06.335Z,97356.16
2022-11-19T06:47:33.617Z,97365.56
2022-11-19T06:50:00.729Z,97363.22
2022-11-19T06:52:28.318Z,97363.41
2022-11-19T06:54:55.442Z,97361.44
2022-11-19T06:57:22.543Z,97370.03
2022-11-19T06:59:49.562Z,97364.63
2022-11-19T07:02:21.291Z,97365.75
2022-11-19T07:04:48.813Z,97365.59
2022-11-19T07:07:15.955Z,97370.03
2022-11-19T07:09:43.096Z,97366.84
2022-11-19T07:12:10.202Z,97364.09
2022-11-19T07:14:37.337Z,97370.72
2022-11-19T07:17:05.332Z,97371.56
2022-11-19T07:19:32.391Z,97369.59
2022-11-19T07:21:59.477Z,97370.63
2022-11-19T07:24:26.757Z,97371.47
2022-11-19T07:26:54.866Z,97377.72
2022-11-19T07:29:22.610Z,97372.72
2022-11-19T07:31:50.773Z,97385.63
2022-11-19T07:34:17.935Z,97383.44
2022-11-19T07:36:45.562Z,97392.97
2022-11-19T07:39:12.840Z,97387.38
2022-11-19T07:41:58.693Z,97385.94
2022-11-19T07:44:25.754Z,97378.41
2022-11-19T07:46:53.120Z,97382.03
2022-11-19T07:49:21.377Z,97392.63
2022-11-19T07:51:48.780Z,97393.13
2022-11-19T07:54:16.223Z,97387.31
2022-11-19T07:56:43.227Z,97396.25
2022-11-19T07:59:10.649Z,97391.66
2022-11-19T08:01:38.096Z,97396.44
2022-11-19T08:04:05.412Z,97394.16
2022-11-19T08:06:34.486Z,97392.97
2022-11-19T08:09:02.352Z,97401.72
2022-11-19T08:11:29.833Z,97412.28
2022-11-19T08:13:58.392Z,97412.28
2022-11-19T08:16:44.050Z,97410.47
2022-11-19T08:19:13.178Z,97414.78
2022-11-19T08:21:41.197Z,97418.09
2022-11-19T08:24:09.104Z,97434.94
2022-11-19T08:26:36.471Z,97421.72
2022-11-19T08:29:03.995Z,97435.63
2022-11-19T08:31:31.135Z,97434.13
2022-11-19T08:33:58.251Z,97425.72
2022-11-19T08:36:25.274Z,97433.47
2022-11-19T08:38:52.380Z,97419.78
2022-11-19T08:41:38.469Z,97413.66
2022-11-19T08:44:05.614Z,97410.19
2022-11-19T08:46:32.669Z,97418.94
2022-11-19T08:48:59.716Z,97415.66
2022-11-19T08:51:26.802Z,97421.94
2022-11-19T08:53:53.895Z,97428.72
2022-11-19T08:56:21.208Z,97417.31
2022-11-19T08:58:48.707Z,97422.59
2022-11-19T09:01:17.378Z,97420.75
2022-11-19T09:03:44.661Z,97416.28
2022-11-19T09:06:12.042Z,97423.41
2022-11-19T09:08:39.716Z,97419.94
2022-11-19T09:11:07.746Z,97432.00
2022-11-19T09:13:34.907Z,97433.66
2022-11-19T09:16:02.155Z,97440.91
2022-11-19T09:18:29.207Z,97438.63
2022-11-19T09:20:56.780Z,97436.97
2022-11-19T09:23:24.784Z,97442.56
2022-11-19T09:26:02.248Z,97448.16
2022-11-19T09:28:30.471Z,97447.03
2022-11-19T09:30:58.426Z,97453.97
2022-11-19T09:33:26.287Z,97452.97
2022-11-19T09:35:53.370Z,97458.91
2022-11-19T09:38:20.436Z,97460.91
2022-11-19T09:40:49.419Z,97464.38
2022-11-19T09:43:22.815Z,97464.00
2022-11-19T09:45:55.825Z,97458.25
2022-11-19T09:48:29.182Z,97460.38
2022-11-19T09:51:16.031Z,97463.53
2022-11-19T09:53:53.314Z,97460.56
2022-11-19T09:56:28.172Z,97468.31
2022-11-19T09:58:56.765Z,97465.34
2022-11-19T10:01:25.643Z,97467.19
2022-11-19T10:03:53.781Z,97467.66
2022-11-19T10:06:36.307Z,97476.25
2022-11-19T10:09:09.550Z,97463.56
2022-11-19T10:11:54.265Z,97462.38
2022-11-19T10:14:24.305Z,97457.75
2022-11-19T10:17:05.275Z,97457.09
2022-11-19T10:20:07.907Z,97457.75
2022-11-19T10:22:38.585Z,97456.75
2022-11-19T10:25:15.951Z,97457.09
2022-11-19T10:27:42.980Z,97453.13
2022-11-19T10:30:15.088Z,97459.25
2022-11-19T10:33:00.336Z,97459.41
2022-11-19T10:35:31.276Z,97462.03
2022-11-19T10:38:00.473Z,97452.47
2022-11-19T10:40:32.879Z,97455.09
2022-11-19T10:43:23.106Z,97459.09
2022-11-19T10:45:50.801Z,97444.53
2022-11-19T10:48:22.271Z,97447.16
2022-11-19T10:50:49.802Z,97441.56
2022-11-19T10:53:36.220Z,97447.50
2022-11-19T10:56:04.761Z,97440.41
2022-11-19T10:58:39.048Z,97435.28
2022-11-19T11:01:16.401Z,97430.31
2022-11-19T11:03:49.433Z,97436.44
2022-11-19T11:06:16.849Z,97427.03
2022-11-19T11:08:51.751Z,97436.63
2022-11-19T11:11:52.994Z,97441.41
2022-11-19T11:14:39.893Z,97429.34
2022-11-19T11:17:27.297Z,97452.81
2022-11-19T11:19:57.231Z,97441.25
2022-11-19T11:22:25.287Z,97452.63
2022-11-19T11:24:52.455Z,97446.19
2022-11-19T11:27:19.846Z,97452.28
2022-11-19T11:29:46.972Z,97444.88
2022-11-19T11:32:26.903Z,97440.72
2022-11-19T11:34:53.967Z,97432.63
2022-11-19T11:37:21.400Z,97435.25
2022-11-19T11:39:50.884Z,97432.28
2022-11-19T11:42:18.820Z,97434.63
2022-11-19T11:44:53.950Z,97436.63
2022-11-19T11:47:23.432Z,97435.97
2022-11-19T11:50:09.567Z,97438.25
2022-11-19T11:52:39.831Z,97435.81
2022-11-19T11:55:12.513Z,97442.06
2022-11-19T11:57:51.189Z,97451.31
2022-11-19T12:00:30.526Z,97438.78
2022-11-19T12:03:00.585Z,97436.44
2022-11-19T12:05:29.499Z,97454.13
2022-11-19T12:08:15.466Z,97444.53
2022-11-19T12:10:50.372Z,97433.63
2022-11-19T12:13:31.862Z,97450.31
2022-11-19T12:16:02.053Z,97452.13
2022-11-19T12:18:43.382Z,97454.78
2022-11-19T12:21:12.207Z,97441.56
2022-11-19T12:23:48.740Z,97442.41
2022-11-19T12:26:31.334Z,97436.28
2022-11-19T12:29:10.108Z,97438.44
2022-11-19T12:31:37.220Z,97426.41
2022-11-19T12:34:30.029Z,97422.41
2022-11-19T12:37:09.386Z,97413.19
2022-11-19T12:39:56.755Z,97413.19
2022-11-19T12:42:23.765Z,97408.88
2022-11-19T12:44:58.516Z,97412.84
2022-11-19T12:47:27.798Z,97423.41
2022-11-19T12:50:01.027Z,97419.44
2022-11-19T12:52:41.459Z,97430.31
2022-11-19T12:55:11.270Z,97427.38
2022-11-19T12:57:38.229Z,97430.84
2022-11-19T13:00:39.629Z,97429.03
2022-11-19T13:03:15.031Z,97433.31
2022-11-19T13:05:45.386Z,97415.81
2022-11-19T13:08:16.584Z,97418.78
2022-11-19T13:10:47.981Z,97423.06
2022-11-19T13:13:17.191Z,97418.13
2022-11-19T13:15:47.059Z,97425.72
2022-11-19T13:18:16.310Z,97425.72
2022-11-19T13:21:12.812Z,97417.94
2022-11-19T13:23:42.466Z,97405.56
2022-11-19T13:26:11.202Z,97420.78
2022-11-19T13:28:47.529Z,97425.72
2022-11-19T13:31:37.964Z,97415.31
2022-11-19T13:34:14.412Z,97416.47
2022-11-19T13:37:00.299Z,97419.13
2022-11-19T13:39:31.762Z,97415.66
2022-11-19T13:42:19.045Z,97412.03
2022-11-19T13:44:46.271Z,97401.28
2022-11-19T13:47:22.498Z,97403.91
2022-11-19T13:49:53.502Z,97407.88
2022-11-19T13:52:23.713Z,97412.34
2022-11-19T13:54:51.050Z,97416.81
2022-11-19T13:57:30.374Z,97416.47
2022-11-19T13:59:59.677Z,97419.44
2022-11-19T14:02:46.583Z,97424.56
2022-11-19T14:05:27.753Z,97418.47
2022-11-19T14:08:00.710Z,97416.13
2022-11-19T14:10:27.758Z,97422.59
2022-11-19T14:13:14.641Z,97431.66
2022-11-19T14:16:00.672Z,97423.91
2022-11-19T14:19:06.813Z,97422.41
2022-11-19T14:21:52.605Z,97414.31
2022-11-19T14:24:44.631Z,97407.88
2022-11-19T14:27:21.014Z,97409.19
2022-11-19T14:29:48.057Z,97416.13
2022-11-19T14:32:15.156Z,97411.84
2022-11-19T14:35:08.857Z,97416.66
2022-11-19T14:37:45.390Z,97414.31
2022-11-19T14:40:12.401Z,97420.13
2022-11-19T14:43:24.438Z,97426.72
2022-11-19T14:46:00.860Z,97429.34
2022-11-19T14:48:28.883Z,97432.16
2022-11-19T14:51:06.074Z,97431.00
2022-11-19T14:53:36.537Z,97427.69
2022-11-19T14:56:14.268Z,97434.44
2022-11-19T14:58:59.814Z,97436.63
2022-11-19T15:01:26.858Z,97439.41
2022-11-19T15:03:55.943Z,97446.03
2022-11-19T15:06:23.485Z,97443.56
2022-11-19T15:08:56.919Z,97446.88
2022-11-19T15:11:24.032Z,97435.94
2022-11-19T15:14:11.498Z,97432.97
2022-11-19T15:16:38.759Z,97442.88
2022-11-19T15:19:26.061Z,97445.22
2022-11-19T15:22:00.123Z,97440.91
2022-11-19T15:24:32.521Z,97440.75
2022-11-19T15:26:59.530Z,97436.44
2022-11-19T15:29:45.329Z,97431.31
2022-11-19T15:32:12.372Z,97432.16
2022-11-19T15:35:12.241Z,97438.28
2022-11-19T15:37:54.327Z,97441.91
2022-11-19T15:40:23.944Z,97439.94
2022-11-19T15:43:04.461Z,97446.19
2022-11-19T15:45:36.436Z,97444.84
2022-11-19T15:48:13.004Z,97443.25
2022-11-19T15:50:42.400Z,97440.56
2022-11-19T15:53:17.844Z,97452.97
2022-11-19T15:55:59.626Z,97458.59
2022-11-19T15:58:30.341Z,97461.91
2022-11-19T16:00:57.449Z,97454.78
2022-11-19T16:03:24.590Z,97459.72
2022-11-19T16:06:00.621Z,97470.81
2022-11-19T16:08:28.308Z,97465.69
2022-11-19T16:11:20.266Z,97467.34
2022-11-19T16:14:10.711Z,97466.50
2022-11-19T16:16:57.154Z,97465.84
2022-11-19T16:19:24.538Z,97467.81
2022-11-19T16:21:54.355Z,97473.94
2022-11-19T16:24:40.550Z,97478.38
2022-11-19T16:27:10.009Z,97470.50
2022-11-19T16:29:40.507Z,97478.06
2022-11-19T16:32:08.276Z,97480.56
2022-11-19T16:34:37.071Z,97477.59
2022-11-19T16:37:04.229Z,97477.06
2022-11-19T16:39:31.986Z,97480.22
2022-11-19T16:42:16.644Z,97482.34
2022-11-19T16:44:45.775Z,97479.88
2022-11-19T16:47:32.090Z,97489.13
2022-11-19T16:50:03.628Z,97490.13
2022-11-19T16:52:43.517Z,97488.28
2022-11-19T16:55:16.573Z,97488.81
2022-11-19T16:57:51.963Z,97490.28
2022-11-19T17:00:20.675Z,97481.53
2022-11-19T17:02:48.308Z,97481.03
2022-11-19T17:05:19.756Z,97483.84
2022-11-19T17:07:51.472Z,97490.13
2022-11-19T17:10:24.296Z,97490.44
2022-11-19T17:13:14.825Z,97490.09
2022-11-19T17:15:42.929Z,97497.06
2022-11-19T17:18:09.983Z,97497.38
2022-11-19T17:20:37.012Z,97503.34
2022-11-19T17:23:13.892Z,97503.19
2022-11-19T17:26:01.103Z,97502.69
2022-11-19T17:28:36.376Z,97503.81
2022-11-19T17:31:15.895Z,97505.31
2022-11-19T17:33:50.682Z,97505.16
2022-11-19T17:36:17.845Z,97516.72
2022-11-19T17:38:44.903Z,97519.19
2022-11-19T17:41:14.448Z,97521.16
2022-11-19T17:44:00.249Z,97514.41
2022-11-19T17:46:28.879Z,97521.69
2022-11-19T17:48:56.911Z,97523.81
2022-11-19T17:51:25.235Z,97530.25
2022-11-19T17:53:52.486Z,97529.09
2022-11-19T17:56:19.731Z,97524.78
2022-11-19T17:58:47.363Z,97522.97
2022-11-19T18:01:15.230Z,97528.78
2022-11-19T18:03:42.350Z,97534.72
2022-11-19T18:06:13.817Z,97541.97
2022-11-19T18:08:42.088Z,97541.31
2022-11-19T18:11:13.556Z,97549.56
2022-11-19T18:13:42.183Z,97548.59
2022-11-19T18:16:12.073Z,97533.72
2022-11-19T18:18:39.206Z,97536.38
2022-11-19T18:21:08.971Z,97534.06
2022-11-19T18:23:36.025Z,97524.78
2022-11-19T18:26:03.084Z,97520.81
2022-11-19T18:28:30.127Z,97530.06
2022-11-19T18:30:57.733Z,97530.72
2022-11-19T18:33:24.796Z,97526.25
2022-11-19T18:35:52.137Z,97535.00
2022-11-19T18:38:19.163Z,97539.81
2022-11-19T18:40:46.238Z,97555.00
2022-11-19T18:43:36.224Z,97551.69
2022-11-19T18:46:05.975Z,97554.84
2022-11-19T18:48:33.044Z,97557.34
2022-11-19T18:51:00.118Z,97560.81
2022-11-19T18:53:27.325Z,97553.22
2022-11-19T18:55:54.579Z,97555.53
2022-11-19T18:58:21.654Z,97551.88
2022-11-19T19:00:49.250Z,97547.72
2022-11-19T19:03:16.347Z,97555.00
2022-11-19T19:05:43.499Z,97565.75
2022-11-19T19:08:10.818Z,97567.72
2022-11-19T19:10:37.980Z,97571.03
2022-11-19T19:13:05.123Z,97565.44
2022-11-19T19:15:32.291Z,97561.13
2022-11-19T19:18:02.368Z,97568.06
2022-11-19T19:20:32.713Z,97563.25
2022-11-19T19:22:59.811Z,97557.50
2022-11-19T19:25:26.940Z,97553.34
2022-11-19T19:27:54.022Z,97552.19
2022-11-19T19:30:21.279Z,97556.66
2022-11-19T19:32:48.416Z,97544.91
2022-11-19T19:35:15.476Z,97542.44
2022-11-19T19:37:42.810Z,97541.44
2022-11-19T19:40:10.764Z,97539.94
2022-11-19T19:42:41.227Z,97550.69
2022-11-19T19:45:08.800Z,97555.84
2022-11-19T19:47:35.803Z,97572.03
2022-11-19T19:50:02.880Z,97567.44
2022-11-19T19:52:29.954Z,97565.44
2022-11-19T19:54:58.933Z,97572.53
2022-11-19T19:57:28.531Z,97562.47
2022-11-19T19:59:55.598Z,97568.91
2022-11-19T20:02:22.681Z,97571.72
2022-11-19T20:04:49.754Z,97566.41
2022-11-19T20:07:19.249Z,97570.03
2022-11-19T20:09:46.320Z,97568.69
2022-11-19T20:12:13.590Z,97571.00
2022-11-19T20:14:41.269Z,97571.19
2022-11-19T20:17:08.287Z,97578.44
2022-11-19T20:19:35.969Z,97585.53
2022-11-19T20:22:03.103Z,97583.91
2022-11-19T20:24:30.235Z,97588.69
2022-11-19T20:26:57.392Z,97588.19
2022-11-19T20:29:24.521Z,97575.97
2022-11-19T20:31:51.771Z,97590.00
2022-11-19T20:34:18.940Z,97578.44
2022-11-19T20:36:46.502Z,97580.94
2022-11-19T20:39:13.590Z,97578.00
2022-11-19T20:41:59.282Z,97578.16
2022-11-19T20:44:26.382Z,97574.50
2022-11-19T20:46:53.422Z,97576.63
2022-11-19T20:49:24.831Z,97574.50
2022-11-19T20:51:52.941Z,97578.13
2022-11-19T20:54:21.432Z,97571.72
2022-11-19T20:56:49.434Z,97580.94
2022-11-19T20:59:16.748Z,97581.28
2022-11-19T21:01:44.093Z,97570.72
2022-11-19T21:04:11.890Z,97574.00
2022-11-19T21:06:39.031Z,97579.78
2022-11-19T21:09:06.571Z,97579.66
2022-11-19T21:11:33.854Z,97584.94
2022-11-19T21:14:00.961Z,97572.34
2022-11-19T21:16:32.733Z,97575.84
2022-11-19T21:19:03.363Z,97582.28
2022-11-19T21:21:30.645Z,97575.72
2022-11-19T21:23:58.347Z,97570.44
2022-11-19T21:26:26.492Z,97577.53
2022-11-19T21:28:54.953Z,97571.09
2022-11-19T21:31:23.422Z,97574.38
2022-11-19T21:33:50.549Z,97573.22
2022-11-19T21:36:17.652Z,97567.09
2022-11-19T21:38:44.766Z,97558.00
2022-11-19T21:41:11.948Z,97562.47
2022-11-19T21:43:39.327Z,97564.44
2022-11-19T21:46:07.490Z,97563.63
2022-11-19T21:48:36.856Z,97562.16
2022-11-19T21:51:07.713Z,97562.78
2022-11-19T21:53:35.385Z,97556.19
2022-11-19T21:56:03.018Z,97560.97
2022-11-19T21:58:30.369Z,97559.66
2022-11-19T22:01:01.985Z,97562.31
2022-11-19T22:03:31.294Z,97555.53
2022-11-19T22:05:59.602Z,97556.06
2022-11-19T22:08:28.399Z,97558.50
2022-11-19T22:10:55.454Z,97548.75
2022-11-19T22:13:22.468Z,97547.44
2022-11-19T22:15:50.694Z,97551.91
2022-11-19T22:18:17.810Z,97558.84
2022-11-19T22:20:44.940Z,97548.44
2022-11-19T22:23:11.996Z,97551.09
2022-11-19T22:25:39.036Z,97561.50
2022-11-19T22:28:06.063Z,97555.22
2022-11-19T22:30:33.787Z,97554.25
2022-11-19T22:33:00.866Z,97560.81
2022-11-19T22:35:28.004Z,97555.84
2022-11-19T22:37:55.063Z,97554.03
2022-11-19T22:40:22.116Z,97560.50
2022-11-19T22:42:49.224Z,97547.44
2022-11-19T22:45:16.252Z,97546.63
2022-11-19T22:47:43.301Z,97552.06
2022-11-19T22:50:10.426Z,97549.94
2022-11-19T22:52:37.527Z,97558.53
2022-11-19T22:55:04.820Z,97552.59
2022-11-19T22:57:31.897Z,97553.91
2022-11-19T22:59:58.926Z,97559.88
2022-11-19T23:02:26.018Z,97564.16
2022-11-19T23:04:53.130Z,97561.00
2022-11-19T23:07:20.211Z,97563.97
2022-11-19T23:09:47.270Z,97567.28
2022-11-19T23:12:32.993Z,97572.72
2022-11-19T23:15:00.077Z,97567.13
2022-11-19T23:17:27.226Z,97564.34
2022-11-19T23:19:54.313Z,97567.81
2022-11-19T23:22:21.357Z,97562.66
2022-11-19T23:24:48.451Z,97564.66
2022-11-19T23:27:20.788Z,97564.16
2022-11-19T23:29:49.148Z,97561.84
2022-11-19T23:32:16.229Z,97564.16
2022-11-19T23:34:44.721Z,97571.59
2022-11-19T23:37:12.164Z,97568.44
2022-11-19T23:39:39.278Z,97565.47
2022-11-19T23:42:06.329Z,97580.50
2022-11-19T23:44:33.911Z,97574.22
2022-11-19T23:47:01.104Z,97577.19
2022-11-19T23:49:28.235Z,97582.31
2022-11-19T23:51:55.307Z,97588.28
2022-11-19T23:54:22.376Z,97583.81
2022-11-19T23:56:49.542Z,97595.38
2022-11-19T23:59:18.608Z,97595.38
